Time;durP1;ratioP1;P1;durP2;ratioP2;P2;SDS_P1;SDS_P2;PMS_P1;PMS_P2;Temp;Humidity;BMP_temperature;BMP_pressure;BME280_temperature;BME280_humidity;BME280_pressure;Samples;Min_cycle;Max_cycle;Signal;HPM_P1;HPM_P2
2022/06/26 13:03:28;;;;;;;24.40;12.00;;;;;;;;;;5083431;23;20060;-60
2022/06/26 13:05:54;;;;;;;31.10;14.35;;;;;;;;;;4917111;29;20079;-58
2022/06/26 13:08:20;;;;;;;19.85;10.15;;;;;;;;;;4916502;29;20056;-59
2022/06/26 13:10:47;;;;;;;20.77;9.32;;;;;;;;;;4913356;29;20074;-58
2022/06/26 13:13:19;;;;;;;16.33;8.45;;;;;;;;;;4916017;29;20107;-58
2022/06/26 13:15:45;;;;;;;;;;;;;;;;;;4916316;29;20079;-60
2022/06/26 13:18:11;;;;;;;15.32;9.65;;;;;;;;;;4915900;29;20312;-59
2022/06/26 13:20:37;;;;;;;19.40;10.35;;;;;;;;;;4916599;29;20119;-58
2022/06/26 13:23:03;;;;;;;17.02;9.52;;;;;;;;;;4916157;29;20024;-58
2022/06/26 13:25:29;;;;;;;18.83;6.85;;;;;;;;;;4915640;29;20035;-59
2022/06/26 13:27:55;;;;;;;13.82;8.07;;;;;;;;;;4916274;29;20055;-63
2022/06/26 13:30:22;;;;;;;10.52;5.72;;;;;;;;;;4916838;29;20107;-64
2022/06/26 13:32:48;;;;;;;8.18;4.20;;;;;;;;;;4916668;29;20028;-59
2022/06/26 13:35:14;;;;;;;5.32;2.70;;;;;;;;;;4916380;29;20468;-58
2022/06/26 13:37:42;;;;;;;4.13;2.22;;;;;;;;;;4915968;29;20036;-57
2022/06/26 13:40:09;;;;;;;7.75;2.90;;;;;;;;;;4915973;29;20039;-59
2022/06/26 13:42:35;;;;;;;2.47;1.60;;;;;;;;;;4915611;29;20031;-59
2022/06/26 13:45:01;;;;;;;4.07;2.00;;;;;;;;;;4916361;29;20099;-58
2022/06/26 13:47:27;;;;;;;5.43;2.90;;;;;;;;;;4915801;29;20067;-58
2022/06/26 13:49:54;;;;;;;4.65;3.30;;;;;;;;;;4916258;29;20107;-62
2022/06/26 13:52:20;;;;;;;6.13;2.83;;;;;;;;;;4916292;29;20028;-60
2022/06/26 13:54:46;;;;;;;9.32;3.10;;;;;;;;;;4915874;29;20389;-62
2022/06/26 13:57:12;;;;;;;11.23;3.28;;;;;;;;;;4915997;29;20059;-57
2022/06/26 13:59:38;;;;;;;7.15;3.15;;;;;;;;;;4915966;29;20040;-57
2022/06/26 14:02:04;;;;;;;13.35;3.17;;;;;;;;;;4908389;29;20041;-58
2022/06/26 14:04:30;;;;;;;7.55;2.50;;;;;;;;;;4893983;29;20037;-60
2022/06/26 14:06:57;;;;;;;7.28;3.05;;;;;;;;;;4896700;29;20021;-59
2022/06/26 14:09:23;;;;;;;5.72;2.80;;;;;;;;;;4896859;29;20041;-64
2022/06/26 14:11:49;;;;;;;4.68;2.08;;;;;;;;;;4896437;29;20051;-57
2022/06/26 14:14:15;;;;;;;6.78;2.30;;;;;;;;;;4879671;29;20096;-59
2022/06/26 14:16:41;;;;;;;6.72;2.63;;;;;;;;;;4880194;29;20056;-63
2022/06/26 14:19:07;;;;;;;6.68;1.85;;;;;;;;;;4896860;29;20029;-56
2022/06/26 14:21:33;;;;;;;3.90;1.50;;;;;;;;;;4896828;29;20100;-58
2022/06/26 14:26:44;;;;;;;2.30;1.70;;;;;;;;;;4896963;29;20092;-58
2022/06/26 14:29:10;;;;;;;3.97;1.55;;;;;;;;;;4896742;29;20132;-65
2022/06/26 14:31:39;;;;;;;3.80;1.90;;;;;;;;;;4896543;29;20024;-58
2022/06/26 14:34:05;;;;;;;3.72;1.88;;;;;;;;;;4896655;29;20465;-56
2022/06/26 14:36:32;;;;;;;3.47;2.33;;;;;;;;;;4896530;29;20020;-60
2022/06/26 14:38:58;;;;;;;4.65;1.88;;;;;;;;;;4896447;29;20432;-58
2022/06/26 14:41:24;;;;;;;5.18;2.03;;;;;;;;;;4896199;29;20037;-61
2022/06/26 14:43:50;;;;;;;7.57;2.25;;;;;;;;;;4896245;29;20515;-58
2022/06/26 14:46:16;;;;;;;2.88;1.95;;;;;;;;;;4896378;29;20032;-61
